createdAt,value
2022-10-24T00:00:53.087Z,0.00
2022-10-24T00:01:52.953Z,0.00
2022-10-24T00:02:52.934Z,0.00
2022-10-24T00:03:52.821Z,0.00
2022-10-24T00:04:52.721Z,0.00
2022-10-24T00:05:52.650Z,0.00
2022-10-24T00:06:52.563Z,0.00
2022-10-24T00:07:52.490Z,0.00
2022-10-24T00:08:52.408Z,0.00
2022-10-24T00:09:52.336Z,0.00
2022-10-24T00:10:52.256Z,0.00
2022-10-24T00:11:52.179Z,0.00
2022-10-24T00:12:52.098Z,0.00
2022-10-24T00:13:52.022Z,0.00
2022-10-24T00:14:51.947Z,0.00
2022-10-24T00:15:51.867Z,0.00
2022-10-24T00:16:51.788Z,0.00
2022-10-24T00:17:51.712Z,0.00
2022-10-24T00:18:51.641Z,0.00
2022-10-24T00:19:51.560Z,0.00
2022-10-24T00:20:51.482Z,0.00
2022-10-24T00:21:51.408Z,0.00
2022-10-24T00:22:51.325Z,0.00
2022-10-24T00:23:51.252Z,0.00
2022-10-24T00:24:51.173Z,0.00
2022-10-24T00:25:51.095Z,0.00
2022-10-24T00:26:51.015Z,0.00
2022-10-24T00:27:50.941Z,0.00
2022-10-24T00:28:50.971Z,0.00
2022-10-24T00:29:50.783Z,0.00
2022-10-24T00:30:50.706Z,0.00
2022-10-24T00:31:50.634Z,0.00
2022-10-24T00:32:50.549Z,0.00
2022-10-24T00:33:50.477Z,0.00
2022-10-24T00:34:50.394Z,0.00
2022-10-24T00:35:50.342Z,0.00
2022-10-24T00:36:50.240Z,0.00
2022-10-24T00:37:50.168Z,0.00
2022-10-24T00:38:50.087Z,0.00
2022-10-24T00:39:50.008Z,0.00
2022-10-24T00:40:49.931Z,0.00
2022-10-24T00:41:49.859Z,0.00
2022-10-24T00:42:49.775Z,0.00
2022-10-24T00:43:49.701Z,0.00
2022-10-24T00:44:49.620Z,0.00
2022-10-24T00:45:49.544Z,0.00
2022-10-24T00:46:49.464Z,0.00
2022-10-24T00:47:49.391Z,0.00
2022-10-24T00:48:49.313Z,0.00
2022-10-24T00:49:49.235Z,0.00
2022-10-24T00:50:49.161Z,0.00
2022-10-24T00:51:49.081Z,0.00
2022-10-24T00:52:49.002Z,0.00
2022-10-24T00:53:48.953Z,0.00
2022-10-24T00:54:48.852Z,0.00
2022-10-24T00:55:48.772Z,0.00
2022-10-24T00:56:48.687Z,0.00
2022-10-24T00:57:48.617Z,0.00
2022-10-24T00:58:48.535Z,0.00
2022-10-24T00:59:48.458Z,0.00
2022-10-24T01:00:48.483Z,0.00
2022-10-24T01:01:48.356Z,0.00
2022-10-24T01:02:48.225Z,0.00
2022-10-24T01:03:48.151Z,0.00
2022-10-24T01:04:48.068Z,0.00
2022-10-24T01:05:47.992Z,0.00
2022-10-24T01:06:47.913Z,0.00
2022-10-24T01:07:47.841Z,0.00
2022-10-24T01:08:47.759Z,0.00
2022-10-24T01:09:47.683Z,0.00
2022-10-24T01:10:47.609Z,0.00
2022-10-24T01:11:47.530Z,0.00
2022-10-24T01:12:47.699Z,0.00
2022-10-24T01:13:47.382Z,0.00
2022-10-24T01:14:47.296Z,0.00
2022-10-24T01:15:47.216Z,0.00
2022-10-24T01:16:47.138Z,0.00
2022-10-24T01:17:47.064Z,0.00
2022-10-24T01:18:47.012Z,0.00
2022-10-24T01:19:46.907Z,0.00
2022-10-24T01:20:46.828Z,0.00
2022-10-24T01:21:46.752Z,0.00
2022-10-24T01:22:47.148Z,0.00
2022-10-24T01:23:46.598Z,0.00
2022-10-24T01:24:46.521Z,0.00
2022-10-24T01:25:46.442Z,0.00
2022-10-24T01:26:46.364Z,0.00
2022-10-24T01:27:46.559Z,0.00
2022-10-24T01:28:46.210Z,0.00
2022-10-24T01:29:46.129Z,0.00
2022-10-24T01:30:46.051Z,0.00
2022-10-24T01:31:45.979Z,0.00
2022-10-24T01:32:45.902Z,0.00
2022-10-24T01:33:45.818Z,0.00
2022-10-24T01:34:45.741Z,0.00
2022-10-24T01:35:45.663Z,0.00
2022-10-24T01:36:45.597Z,0.00
2022-10-24T01:37:45.858Z,0.00
2022-10-24T01:38:45.435Z,0.00
2022-10-24T01:39:45.353Z,0.00
2022-10-24T01:40:45.284Z,0.00
2022-10-24T01:41:45.206Z,0.00
2022-10-24T01:42:45.123Z,0.00
2022-10-24T01:43:45.058Z,0.00
2022-10-24T01:44:44.963Z,0.00
2022-10-24T01:45:44.896Z,0.00
2022-10-24T01:46:44.811Z,0.00
2022-10-24T01:47:44.982Z,0.00
2022-10-24T01:48:44.656Z,0.00
2022-10-24T01:49:44.580Z,0.00
2022-10-24T01:50:44.499Z,0.00
2022-10-24T01:51:44.422Z,0.00
2022-10-24T01:52:44.604Z,0.00
2022-10-24T01:53:44.266Z,0.00
2022-10-24T01:54:44.188Z,0.00
2022-10-24T01:55:44.112Z,0.00
2022-10-24T01:56:44.045Z,0.00
2022-10-24T01:57:43.954Z,0.00
2022-10-24T01:58:43.881Z,0.00
2022-10-24T01:59:43.799Z,0.00
2022-10-24T02:01:43.794Z,0.00
2022-10-24T02:02:43.781Z,0.00
2022-10-24T02:03:43.490Z,0.00
2022-10-24T02:04:43.417Z,0.00
2022-10-24T02:05:43.335Z,0.00
2022-10-24T02:06:43.261Z,0.00
2022-10-24T02:07:43.182Z,0.00
2022-10-24T02:08:43.107Z,0.00
2022-10-24T02:09:43.024Z,0.00
2022-10-24T02:10:42.949Z,0.00
2022-10-24T02:11:42.873Z,0.00
2022-10-24T02:12:43.114Z,0.00
2022-10-24T02:13:42.714Z,0.00
2022-10-24T02:14:42.639Z,0.00
2022-10-24T02:15:42.561Z,0.00
2022-10-24T02:16:42.479Z,0.00
2022-10-24T02:17:42.696Z,0.00
2022-10-24T02:18:42.326Z,0.00
2022-10-24T02:19:42.246Z,0.00
2022-10-24T02:20:42.175Z,0.00
2022-10-24T02:21:42.094Z,0.00
2022-10-24T02:22:42.019Z,0.00
2022-10-24T02:23:41.937Z,0.00
2022-10-24T02:24:41.861Z,0.00
2022-10-24T02:25:41.816Z,0.00
2022-10-24T02:26:41.712Z,0.00
2022-10-24T02:27:41.806Z,0.00
2022-10-24T02:28:41.548Z,0.00
2022-10-24T02:29:41.471Z,0.00
2022-10-24T02:30:41.397Z,0.00
2022-10-24T02:31:41.317Z,0.00
2022-10-24T02:32:41.237Z,0.00
2022-10-24T02:33:41.161Z,0.00
2022-10-24T02:34:41.083Z,0.00
2022-10-24T02:35:41.004Z,0.00
2022-10-24T02:36:40.934Z,0.00
2022-10-24T02:37:40.851Z,0.00
2022-10-24T02:38:40.773Z,0.00
2022-10-24T02:39:40.694Z,0.00
2022-10-24T02:40:40.618Z,0.00
2022-10-24T02:41:40.541Z,0.00
2022-10-24T02:42:40.466Z,0.00
2022-10-24T02:43:40.390Z,0.00
2022-10-24T02:44:40.309Z,0.00
2022-10-24T02:45:40.232Z,0.00
2022-10-24T02:46:40.159Z,0.00
2022-10-24T02:47:40.074Z,0.00
2022-10-24T02:48:39.999Z,0.00
2022-10-24T02:49:39.921Z,0.00
2022-10-24T02:50:39.872Z,0.00
2022-10-24T02:51:39.766Z,0.00
2022-10-24T02:52:39.687Z,0.00
2022-10-24T02:53:39.606Z,0.00
2022-10-24T02:54:39.539Z,0.00
2022-10-24T02:55:39.456Z,0.00
2022-10-24T02:56:39.379Z,0.00
2022-10-24T02:57:39.299Z,0.00
2022-10-24T02:58:39.227Z,0.00
2022-10-24T02:59:39.149Z,0.00
2022-10-24T03:00:39.190Z,0.00
2022-10-24T03:01:39.036Z,0.00
2022-10-24T03:02:38.910Z,0.00
2022-10-24T03:03:38.831Z,0.00
2022-10-24T03:04:38.755Z,0.00
2022-10-24T03:05:38.680Z,0.00
2022-10-24T03:06:38.626Z,0.00
2022-10-24T03:07:38.526Z,0.00
2022-10-24T03:08:38.445Z,0.00
2022-10-24T03:09:38.374Z,0.00
2022-10-24T03:10:38.291Z,0.00
2022-10-24T03:11:38.216Z,0.00
2022-10-24T03:12:38.139Z,0.00
2022-10-24T03:13:38.058Z,0.00
2022-10-24T03:14:37.978Z,0.00
2022-10-24T03:15:37.944Z,0.00
2022-10-24T03:16:37.827Z,0.00
2022-10-24T03:17:37.750Z,0.00
2022-10-24T03:18:37.669Z,0.00
2022-10-24T03:19:37.591Z,0.00
2022-10-24T03:20:37.520Z,0.00
2022-10-24T03:21:37.437Z,0.00
2022-10-24T03:22:37.365Z,0.00
2022-10-24T03:23:37.285Z,0.00
2022-10-24T03:24:43.886Z,0.00
2022-10-24T03:25:37.124Z,0.00
2022-10-24T03:26:37.054Z,0.00
2022-10-24T03:27:36.972Z,0.00
2022-10-24T03:28:36.892Z,0.00
2022-10-24T03:29:36.816Z,0.00
2022-10-24T03:30:36.739Z,0.00
2022-10-24T03:31:36.674Z,0.00
2022-10-24T03:32:36.588Z,0.00
2022-10-24T03:33:36.508Z,0.00
2022-10-24T03:34:36.427Z,0.00
2022-10-24T03:35:36.357Z,0.00
2022-10-24T03:36:36.275Z,0.00
2022-10-24T03:37:36.230Z,0.00
2022-10-24T03:38:36.116Z,0.00
2022-10-24T03:39:36.045Z,0.00
2022-10-24T03:40:36.033Z,0.00
2022-10-24T03:41:35.885Z,0.00
2022-10-24T03:42:35.808Z,0.00
2022-10-24T03:43:35.734Z,0.00
2022-10-24T03:44:35.656Z,0.00
2022-10-24T03:45:35.576Z,0.00
2022-10-24T03:46:35.501Z,0.00
2022-10-24T03:47:35.418Z,0.00
2022-10-24T03:48:35.340Z,0.00
2022-10-24T03:49:35.262Z,0.00
2022-10-24T03:50:35.190Z,0.00
2022-10-24T03:51:35.109Z,0.00
2022-10-24T03:52:35.029Z,0.00
2022-10-24T03:53:34.953Z,0.00
2022-10-24T03:54:34.882Z,0.00
2022-10-24T03:55:34.798Z,0.00
2022-10-24T03:56:34.721Z,0.00
2022-10-24T03:57:34.641Z,0.00
2022-10-24T03:58:34.567Z,0.00
2022-10-24T03:59:34.488Z,0.00
2022-10-24T04:00:34.514Z,0.00
2022-10-24T04:01:34.444Z,0.00
2022-10-24T04:02:34.257Z,0.00
2022-10-24T04:03:34.178Z,0.00
2022-10-24T04:04:34.101Z,0.00
2022-10-24T04:05:34.054Z,0.00
2022-10-24T04:06:36.390Z,0.00
2022-10-24T04:07:33.875Z,0.00
2022-10-24T04:08:33.791Z,0.00
2022-10-24T04:09:33.721Z,0.00
2022-10-24T04:10:33.635Z,0.00
2022-10-24T04:11:33.566Z,0.00
2022-10-24T04:12:33.488Z,0.00
2022-10-24T04:13:33.403Z,0.00
2022-10-24T04:14:33.323Z,0.00
2022-10-24T04:15:33.249Z,0.00
2022-10-24T04:16:33.171Z,0.00
2022-10-24T04:17:33.089Z,0.00
2022-10-24T04:18:33.016Z,0.00
2022-10-24T04:19:32.938Z,0.00
2022-10-24T04:20:32.858Z,0.00
2022-10-24T04:21:32.782Z,0.00
2022-10-24T04:22:32.706Z,0.00
2022-10-24T04:23:32.630Z,0.00
2022-10-24T04:24:32.548Z,0.00
2022-10-24T04:25:32.477Z,0.00
2022-10-24T04:26:32.392Z,0.00
2022-10-24T04:27:32.318Z,0.00
2022-10-24T04:28:32.244Z,0.00
2022-10-24T04:29:32.163Z,0.00
2022-10-24T04:30:32.106Z,0.00
2022-10-24T04:31:32.019Z,0.00
2022-10-24T04:32:31.927Z,0.00
2022-10-24T04:33:31.848Z,0.00
2022-10-24T04:34:31.775Z,0.00
2022-10-24T04:35:31.697Z,0.00
2022-10-24T04:36:31.617Z,0.00
2022-10-24T04:37:31.554Z,0.00
2022-10-24T04:38:33.554Z,0.00
2022-10-24T04:39:31.393Z,0.00
2022-10-24T04:40:31.305Z,0.00
2022-10-24T04:41:31.230Z,0.00
2022-10-24T04:42:31.151Z,0.00
2022-10-24T04:43:31.073Z,0.00
2022-10-24T04:44:30.994Z,0.00
2022-10-24T04:45:30.917Z,0.00
2022-10-24T04:46:30.842Z,0.00
2022-10-24T04:47:30.768Z,0.00
2022-10-24T04:48:30.689Z,0.00
2022-10-24T04:49:30.607Z,0.00
2022-10-24T04:50:30.533Z,0.00
2022-10-24T04:51:30.453Z,0.00
2022-10-24T04:52:30.377Z,0.00
2022-10-24T04:53:30.300Z,0.00
2022-10-24T04:54:30.218Z,0.00
2022-10-24T04:55:30.175Z,0.00
2022-10-24T04:56:30.063Z,0.00
2022-10-24T04:57:29.989Z,0.00
2022-10-24T04:58:29.913Z,0.00
2022-10-24T04:59:29.829Z,0.00
2022-10-24T05:00:29.757Z,0.00
2022-10-24T05:01:29.743Z,0.00
2022-10-24T05:02:29.668Z,0.00
2022-10-24T05:03:29.522Z,0.00
2022-10-24T05:04:29.445Z,0.00
2022-10-24T05:05:29.365Z,0.00
2022-10-24T05:06:29.287Z,0.00
2022-10-24T05:07:29.212Z,0.00
2022-10-24T05:08:29.131Z,0.00
2022-10-24T05:09:29.061Z,0.00
2022-10-24T05:10:28.981Z,0.00
2022-10-24T05:11:28.899Z,0.00
2022-10-24T05:12:28.820Z,0.00
2022-10-24T05:13:31.756Z,0.00
2022-10-24T05:14:28.669Z,0.00
2022-10-24T05:15:28.588Z,0.00
2022-10-24T05:16:28.513Z,0.00
2022-10-24T05:17:28.432Z,0.00
2022-10-24T05:18:28.357Z,0.00
2022-10-24T05:19:28.277Z,0.00
2022-10-24T05:20:28.244Z,0.00
2022-10-24T05:21:28.121Z,0.00
2022-10-24T05:22:28.046Z,0.00
2022-10-24T05:23:27.970Z,0.00
2022-10-24T05:24:27.894Z,0.00
2022-10-24T05:25:27.814Z,0.00
2022-10-24T05:26:27.737Z,0.00
2022-10-24T05:27:27.658Z,0.00
2022-10-24T05:28:27.585Z,0.00
2022-10-24T05:29:27.509Z,0.00
2022-10-24T05:30:27.431Z,0.00
2022-10-24T05:31:27.361Z,0.00
2022-10-24T05:32:27.267Z,0.00
2022-10-24T05:33:27.202Z,0.00
2022-10-24T05:34:27.116Z,0.00
2022-10-24T05:35:27.037Z,0.00
2022-10-24T05:36:26.959Z,0.00
2022-10-24T05:37:26.912Z,0.00
2022-10-24T05:38:26.802Z,0.00
2022-10-24T05:39:26.727Z,0.00
2022-10-24T05:40:26.649Z,0.00
2022-10-24T05:41:26.570Z,0.00
2022-10-24T05:42:26.495Z,0.00
2022-10-24T05:43:26.418Z,0.00
2022-10-24T05:44:26.337Z,0.00
2022-10-24T05:45:26.261Z,0.00
2022-10-24T05:46:26.181Z,0.00
2022-10-24T05:47:28.473Z,0.00
2022-10-24T05:48:26.028Z,0.00
2022-10-24T05:49:25.948Z,0.00
2022-10-24T05:50:25.873Z,0.00
2022-10-24T05:51:25.798Z,0.00
2022-10-24T05:52:25.712Z,0.00
2022-10-24T05:53:25.640Z,0.00
2022-10-24T05:54:30.184Z,0.00
2022-10-24T05:55:25.481Z,0.00
2022-10-24T05:56:25.405Z,0.00
2022-10-24T05:57:25.326Z,0.00
2022-10-24T05:58:25.250Z,0.00
2022-10-24T05:59:25.171Z,0.00
2022-10-24T06:00:25.094Z,0.00
2022-10-24T06:01:25.080Z,0.00
2022-10-24T06:02:25.019Z,0.00
2022-10-24T06:03:24.864Z,0.00
2022-10-24T06:04:24.781Z,0.00
2022-10-24T06:05:24.704Z,0.00
2022-10-24T06:06:24.626Z,0.00
2022-10-24T06:07:24.548Z,0.00
2022-10-24T06:08:24.472Z,0.00
2022-10-24T06:09:24.394Z,0.00
2022-10-24T06:10:24.320Z,0.00
2022-10-24T06:11:24.241Z,0.00
2022-10-24T06:12:24.164Z,0.00
2022-10-24T06:13:24.084Z,0.00
2022-10-24T06:14:24.005Z,0.00
2022-10-24T06:15:23.935Z,0.00
2022-10-24T06:16:23.849Z,0.00
2022-10-24T06:17:23.774Z,0.00
2022-10-24T06:18:23.700Z,0.00
2022-10-24T06:19:23.621Z,0.00
2022-10-24T06:20:23.540Z,0.00
2022-10-24T06:21:23.460Z,0.00
2022-10-24T06:22:23.386Z,0.00
2022-10-24T06:23:23.308Z,0.00
2022-10-24T06:24:23.234Z,0.00
2022-10-24T06:25:23.153Z,0.00
2022-10-24T06:26:24.133Z,0.00
2022-10-24T06:27:22.997Z,0.00
2022-10-24T06:28:22.921Z,5.63
2022-10-24T06:29:22.837Z,5.63
2022-10-24T06:30:22.760Z,5.63
2022-10-24T06:31:22.682Z,5.63
2022-10-24T06:32:22.607Z,5.63
2022-10-24T06:33:22.527Z,5.63
2022-10-24T06:34:22.456Z,5.63
2022-10-24T06:35:22.375Z,5.63
2022-10-24T06:36:22.369Z,5.63
2022-10-24T06:37:22.219Z,5.63
2022-10-24T06:38:22.147Z,5.63
2022-10-24T06:39:22.066Z,5.63
2022-10-24T06:40:21.982Z,5.63
2022-10-24T06:41:21.910Z,5.63
2022-10-24T06:42:21.828Z,5.63
2022-10-24T06:43:21.750Z,5.63
2022-10-24T06:44:21.671Z,5.63
2022-10-24T06:45:21.597Z,5.63
2022-10-24T06:46:21.516Z,5.63
2022-10-24T06:47:21.440Z,5.63
2022-10-24T06:48:21.363Z,5.63
2022-10-24T06:49:21.287Z,11.25
2022-10-24T06:50:21.202Z,11.25
2022-10-24T06:51:21.131Z,11.25
2022-10-24T06:52:21.050Z,11.25
2022-10-24T06:54:21.774Z,11.25
2022-10-24T06:55:20.818Z,11.25
2022-10-24T06:56:20.739Z,11.25
2022-10-24T06:57:20.661Z,11.25
2022-10-24T06:58:20.589Z,11.25
2022-10-24T06:59:20.519Z,11.25
2022-10-24T07:00:20.462Z,16.88
2022-10-24T07:01:20.506Z,16.88
2022-10-24T07:02:20.352Z,16.88
2022-10-24T07:03:20.202Z,16.88
2022-10-24T07:04:20.120Z,16.88
2022-10-24T07:05:20.048Z,16.88
2022-10-24T07:06:20.108Z,11.25
2022-10-24T07:07:19.887Z,11.25
2022-10-24T07:08:19.810Z,11.25
2022-10-24T07:09:19.730Z,11.25
2022-10-24T07:10:19.659Z,11.25
2022-10-24T07:11:19.578Z,11.25
2022-10-24T07:13:19.426Z,5.63
2022-10-24T07:14:19.342Z,5.63
2022-10-24T07:15:19.266Z,5.63
2022-10-24T07:16:19.185Z,5.63
2022-10-24T07:17:19.113Z,5.63
2022-10-24T07:18:19.035Z,5.63
2022-10-24T07:19:18.958Z,5.63
2022-10-24T07:20:18.878Z,5.63
2022-10-24T07:21:18.805Z,5.63
2022-10-24T07:22:18.723Z,5.63
2022-10-24T07:23:18.649Z,5.63
2022-10-24T07:24:18.568Z,5.63
2022-10-24T07:25:18.493Z,0.00
2022-10-24T07:26:18.418Z,0.00
2022-10-24T07:27:18.339Z,0.00
2022-10-24T07:28:18.259Z,0.00
2022-10-24T07:29:18.186Z,0.00
2022-10-24T07:30:18.107Z,0.00
2022-10-24T07:31:18.032Z,0.00
2022-10-24T07:32:17.948Z,5.63
2022-10-24T07:33:17.970Z,5.63
2022-10-24T07:34:17.798Z,5.63
2022-10-24T07:35:17.722Z,5.63
2022-10-24T07:36:17.641Z,5.63
2022-10-24T07:37:17.639Z,0.00
2022-10-24T07:38:18.771Z,0.00
2022-10-24T07:39:17.408Z,0.00
2022-10-24T07:40:17.329Z,0.00
2022-10-24T07:41:17.257Z,0.00
2022-10-24T07:42:17.176Z,0.00
2022-10-24T07:43:17.097Z,0.00
2022-10-24T07:44:17.020Z,0.00
2022-10-24T07:45:16.945Z,0.00
2022-10-24T07:46:16.873Z,0.00
2022-10-24T07:47:16.794Z,0.00
2022-10-24T07:48:16.710Z,0.00
2022-10-24T07:49:16.637Z,0.00
2022-10-24T07:50:16.561Z,0.00
2022-10-24T07:51:16.486Z,0.00
2022-10-24T07:52:16.402Z,0.00
2022-10-24T07:53:16.326Z,0.00
2022-10-24T07:54:16.284Z,0.00
2022-10-24T07:55:16.172Z,0.00
2022-10-24T07:56:16.095Z,0.00
2022-10-24T07:57:16.015Z,0.00
2022-10-24T07:58:15.936Z,0.00
2022-10-24T07:59:37.304Z,0.00
2022-10-24T08:00:15.791Z,5.63
2022-10-24T08:01:15.731Z,5.63
2022-10-24T08:02:15.634Z,5.63
2022-10-24T08:03:15.552Z,5.63
2022-10-24T08:04:15.474Z,5.63
2022-10-24T08:05:17.145Z,5.63
2022-10-24T08:06:15.324Z,11.25
2022-10-24T08:07:15.253Z,5.63
2022-10-24T08:09:15.093Z,5.63
2022-10-24T08:10:15.012Z,5.63
2022-10-24T08:11:14.945Z,5.63
2022-10-24T08:12:14.855Z,5.63
2022-10-24T08:13:14.788Z,5.63
2022-10-24T08:14:14.699Z,5.63
2022-10-24T08:15:14.628Z,5.63
2022-10-24T08:16:14.545Z,5.63
2022-10-24T08:17:14.480Z,5.63
2022-10-24T08:18:14.389Z,5.63
2022-10-24T08:19:14.338Z,5.63
2022-10-24T08:20:14.234Z,5.63
2022-10-24T08:21:14.160Z,5.63
2022-10-24T08:22:14.080Z,5.63
2022-10-24T08:23:14.012Z,5.63
2022-10-24T08:24:13.929Z,5.63
2022-10-24T08:25:13.854Z,5.63
2022-10-24T08:26:13.785Z,5.63
2022-10-24T08:27:13.698Z,5.63
2022-10-24T08:28:13.616Z,5.63
2022-10-24T08:29:13.540Z,5.63
2022-10-24T08:30:13.465Z,5.63
2022-10-24T08:31:13.390Z,5.63
2022-10-24T08:32:13.305Z,5.63
2022-10-24T08:33:18.590Z,5.63
2022-10-24T08:34:13.151Z,5.63
2022-10-24T08:35:13.075Z,5.63
2022-10-24T08:36:12.997Z,5.63
2022-10-24T08:37:12.926Z,5.63
2022-10-24T08:38:12.848Z,5.63
2022-10-24T08:39:12.770Z,5.63
2022-10-24T08:40:12.689Z,5.63
2022-10-24T08:41:12.684Z,5.63
2022-10-24T08:42:12.536Z,5.63
2022-10-24T08:43:12.461Z,11.25
2022-10-24T08:44:12.379Z,11.25
2022-10-24T08:45:12.301Z,11.25
2022-10-24T08:46:12.228Z,11.25
2022-10-24T08:47:12.149Z,11.25
2022-10-24T08:48:12.078Z,11.25
2022-10-24T08:49:11.997Z,11.25
2022-10-24T08:50:11.918Z,11.25
2022-10-24T08:51:11.839Z,11.25
2022-10-24T08:52:11.762Z,16.88
2022-10-24T08:53:11.685Z,16.88
2022-10-24T08:54:11.604Z,16.88
2022-10-24T08:55:25.131Z,16.88
2022-10-24T08:56:11.452Z,16.88
2022-10-24T08:57:11.374Z,22.50
2022-10-24T08:58:11.298Z,22.50
2022-10-24T08:59:11.217Z,28.13
2022-10-24T09:00:11.137Z,28.13
2022-10-24T09:01:11.214Z,28.13
2022-10-24T09:02:13.578Z,28.13
2022-10-24T09:03:10.912Z,28.13
2022-10-24T09:04:10.828Z,33.75
2022-10-24T09:05:10.756Z,39.38
2022-10-24T09:06:10.676Z,33.75
2022-10-24T09:07:10.601Z,33.75
2022-10-24T09:08:10.526Z,28.13
2022-10-24T09:09:10.446Z,22.50
2022-10-24T09:10:10.372Z,22.50
2022-10-24T09:11:10.288Z,16.88
2022-10-24T09:12:10.215Z,16.88
2022-10-24T09:13:10.144Z,16.88
2022-10-24T09:14:10.052Z,16.88
2022-10-24T09:15:09.980Z,16.88
2022-10-24T09:16:09.901Z,16.88
2022-10-24T09:17:09.884Z,16.88
2022-10-24T09:18:09.746Z,16.88
2022-10-24T09:19:09.671Z,16.88
2022-10-24T09:20:09.591Z,16.88
2022-10-24T09:21:09.521Z,16.88
2022-10-24T09:22:09.435Z,16.88
2022-10-24T09:23:09.356Z,16.88
2022-10-24T09:24:09.278Z,16.88
2022-10-24T09:25:09.218Z,16.88
2022-10-24T09:26:09.123Z,16.88
2022-10-24T09:27:09.089Z,16.88
2022-10-24T09:28:08.967Z,16.88
2022-10-24T09:29:08.895Z,16.88
2022-10-24T09:30:08.815Z,16.88
2022-10-24T09:31:08.739Z,11.25
2022-10-24T09:32:08.658Z,11.25
2022-10-24T09:33:08.584Z,11.25
2022-10-24T09:34:08.501Z,11.25
2022-10-24T09:35:08.427Z,11.25
2022-10-24T09:36:08.348Z,11.25
2022-10-24T09:37:08.331Z,11.25
2022-10-24T09:38:08.193Z,11.25
2022-10-24T09:39:08.120Z,11.25
2022-10-24T09:40:08.050Z,5.63
2022-10-24T09:41:07.961Z,5.63
2022-10-24T09:42:07.884Z,5.63
2022-10-24T09:43:07.808Z,5.63
2022-10-24T09:44:07.731Z,5.63
2022-10-24T09:45:07.705Z,5.63
2022-10-24T09:46:07.576Z,5.63
2022-10-24T09:47:07.539Z,5.63
2022-10-24T09:48:07.418Z,11.25
2022-10-24T09:49:07.339Z,11.25
2022-10-24T09:50:07.270Z,11.25
2022-10-24T09:51:07.188Z,11.25
2022-10-24T09:52:07.106Z,11.25
2022-10-24T09:53:07.033Z,11.25
2022-10-24T09:54:06.951Z,11.25
2022-10-24T09:55:06.874Z,11.25
2022-10-24T09:56:06.799Z,11.25
2022-10-24T09:57:06.737Z,11.25
2022-10-24T09:58:06.646Z,11.25
2022-10-24T09:59:06.563Z,11.25
2022-10-24T10:00:06.487Z,11.25
2022-10-24T10:01:06.571Z,11.25
2022-10-24T10:02:06.575Z,11.25
2022-10-24T10:03:06.255Z,11.25
2022-10-24T10:04:09.469Z,11.25
2022-10-24T10:05:06.096Z,11.25
2022-10-24T10:06:06.042Z,11.25
2022-10-24T10:07:05.946Z,11.25
2022-10-24T10:08:05.865Z,11.25
2022-10-24T10:09:05.786Z,11.25
2022-10-24T10:10:05.707Z,11.25
2022-10-24T10:11:05.628Z,11.25
2022-10-24T10:12:05.554Z,11.25
2022-10-24T10:13:05.478Z,11.25
2022-10-24T10:14:05.402Z,11.25
2022-10-24T10:15:05.319Z,11.25
2022-10-24T10:16:05.242Z,11.25
2022-10-24T10:17:05.189Z,11.25
2022-10-24T10:18:05.088Z,11.25
2022-10-24T10:19:05.008Z,11.25
2022-10-24T10:20:04.935Z,11.25
2022-10-24T10:21:04.853Z,11.25
2022-10-24T10:22:04.773Z,11.25
2022-10-24T10:23:04.700Z,11.25
2022-10-24T10:24:04.623Z,11.25
2022-10-24T10:25:04.610Z,11.25
2022-10-24T10:26:04.467Z,11.25
2022-10-24T10:27:04.388Z,11.25
2022-10-24T10:28:04.309Z,11.25
2022-10-24T10:29:04.232Z,11.25
2022-10-24T10:30:04.164Z,11.25
2022-10-24T10:31:04.080Z,11.25
2022-10-24T10:32:03.997Z,16.88
2022-10-24T10:33:03.925Z,16.88
2022-10-24T10:34:03.845Z,16.88
2022-10-24T10:35:03.766Z,11.25
2022-10-24T10:36:03.694Z,11.25
2022-10-24T10:37:03.611Z,11.25
2022-10-24T10:38:03.538Z,11.25
2022-10-24T10:39:03.452Z,11.25
2022-10-24T10:40:03.385Z,11.25
2022-10-24T10:41:03.302Z,11.25
2022-10-24T10:42:03.225Z,16.88
2022-10-24T10:43:03.142Z,16.88
2022-10-24T10:44:03.071Z,16.88
2022-10-24T10:45:02.988Z,16.88
2022-10-24T10:46:02.912Z,16.88
2022-10-24T10:47:02.837Z,16.88
2022-10-24T10:48:02.755Z,16.88
2022-10-24T10:49:02.684Z,22.50
2022-10-24T10:50:02.614Z,22.50
2022-10-24T10:51:05.801Z,22.50
2022-10-24T10:52:02.451Z,28.13
2022-10-24T10:53:02.373Z,28.13
2022-10-24T10:54:02.292Z,28.13
2022-10-24T10:55:02.213Z,28.13
2022-10-24T10:56:02.137Z,28.13
2022-10-24T10:57:02.060Z,28.13
2022-10-24T10:58:01.991Z,28.13
2022-10-24T10:59:01.914Z,28.13
2022-10-24T11:00:01.830Z,28.13
2022-10-24T11:01:01.893Z,28.13
2022-10-24T11:02:01.888Z,28.13
2022-10-24T11:03:01.596Z,28.13
2022-10-24T11:04:01.516Z,28.13
2022-10-24T11:05:01.442Z,28.13
2022-10-24T11:06:01.361Z,22.50
2022-10-24T11:08:01.210Z,22.50
2022-10-24T11:09:01.130Z,22.50
2022-10-24T11:10:01.051Z,22.50
2022-10-24T11:11:00.977Z,22.50
2022-10-24T11:12:00.898Z,22.50
2022-10-24T11:13:00.826Z,22.50
2022-10-24T11:14:00.759Z,22.50
2022-10-24T11:15:00.668Z,22.50
2022-10-24T11:16:00.587Z,22.50
2022-10-24T11:17:00.509Z,22.50
2022-10-24T11:18:00.439Z,22.50
2022-10-24T11:19:00.358Z,16.88
2022-10-24T11:20:00.282Z,16.88
2022-10-24T11:21:00.202Z,16.88
2022-10-24T11:22:00.126Z,16.88
2022-10-24T11:23:00.052Z,16.88
2022-10-24T11:23:59.970Z,16.88
2022-10-24T11:24:59.892Z,16.88
2022-10-24T11:25:59.819Z,16.88
2022-10-24T11:26:59.740Z,16.88
2022-10-24T11:27:59.659Z,22.50
2022-10-24T11:28:59.583Z,22.50
2022-10-24T11:29:59.509Z,22.50
2022-10-24T11:30:59.454Z,22.50
2022-10-24T11:31:59.362Z,22.50
2022-10-24T11:32:59.273Z,28.13
2022-10-24T11:33:59.198Z,28.13
2022-10-24T11:34:59.121Z,28.13
2022-10-24T11:35:59.044Z,28.13
2022-10-24T11:36:58.969Z,28.13
2022-10-24T11:37:58.893Z,28.13
2022-10-24T11:38:58.810Z,28.13
2022-10-24T11:39:58.734Z,22.50
2022-10-24T11:40:59.615Z,22.50
2022-10-24T11:41:58.584Z,22.50
2022-10-24T11:42:58.505Z,22.50
2022-10-24T11:43:58.429Z,22.50
2022-10-24T11:44:58.348Z,22.50
2022-10-24T11:45:58.272Z,22.50
2022-10-24T11:47:00.891Z,22.50
2022-10-24T11:47:58.113Z,22.50
2022-10-24T11:48:58.040Z,22.50
2022-10-24T11:49:57.961Z,22.50
2022-10-24T11:50:57.883Z,22.50
2022-10-24T11:51:57.808Z,16.88
2022-10-24T11:52:57.734Z,16.88
2022-10-24T11:53:57.651Z,16.88
2022-10-24T11:54:57.579Z,16.88
2022-10-24T11:55:57.499Z,22.50
2022-10-24T11:56:57.419Z,22.50
2022-10-24T11:57:57.346Z,22.50
2022-10-24T11:58:57.263Z,22.50
2022-10-24T11:59:57.189Z,22.50
2022-10-24T12:00:57.111Z,22.50
2022-10-24T12:01:57.035Z,22.50
2022-10-24T12:02:57.064Z,22.50
2022-10-24T12:03:56.881Z,22.50
2022-10-24T12:04:56.801Z,28.13
2022-10-24T12:05:56.723Z,28.13
2022-10-24T12:06:56.650Z,28.13
2022-10-24T12:07:56.568Z,28.13
2022-10-24T12:08:56.494Z,33.75
2022-10-24T12:09:56.417Z,33.75
2022-10-24T12:10:56.342Z,33.75
2022-10-24T12:11:56.257Z,28.13
2022-10-24T12:12:56.900Z,28.13
2022-10-24T12:13:56.126Z,28.13
2022-10-24T12:14:56.032Z,28.13
2022-10-24T12:15:55.950Z,28.13
2022-10-24T12:16:55.873Z,22.50
2022-10-24T12:17:55.798Z,22.50
2022-10-24T12:18:55.716Z,22.50
2022-10-24T12:19:55.644Z,22.50
2022-10-24T12:20:55.568Z,22.50
2022-10-24T12:21:55.489Z,22.50
2022-10-24T12:22:55.415Z,22.50
2022-10-24T12:23:55.334Z,22.50
2022-10-24T12:24:55.281Z,22.50
2022-10-24T12:25:55.181Z,22.50
2022-10-24T12:26:55.107Z,22.50
2022-10-24T12:27:55.023Z,16.88
2022-10-24T12:28:54.945Z,16.88
2022-10-24T12:29:54.867Z,16.88
2022-10-24T12:30:54.794Z,16.88
2022-10-24T12:31:55.662Z,11.25
2022-10-24T12:32:54.634Z,11.25
2022-10-24T12:33:54.571Z,11.25
2022-10-24T12:34:58.375Z,11.25
2022-10-24T12:35:54.403Z,11.25
2022-10-24T12:36:54.332Z,11.25
2022-10-24T12:37:54.257Z,11.25
2022-10-24T12:38:54.179Z,11.25
2022-10-24T12:39:57.596Z,11.25
2022-10-24T12:40:54.021Z,11.25
2022-10-24T12:41:53.944Z,11.25
2022-10-24T12:42:53.867Z,16.88
2022-10-24T12:43:53.788Z,16.88
2022-10-24T12:44:53.713Z,22.50
2022-10-24T12:45:53.636Z,22.50
2022-10-24T12:46:53.553Z,22.50
2022-10-24T12:47:53.477Z,22.50
2022-10-24T12:48:53.402Z,22.50
2022-10-24T12:49:53.323Z,22.50
2022-10-24T12:50:53.260Z,22.50
2022-10-24T12:51:53.172Z,22.50
2022-10-24T12:52:53.092Z,16.88
2022-10-24T12:53:53.017Z,16.88
2022-10-24T12:54:52.938Z,16.88
2022-10-24T12:55:52.866Z,16.88
2022-10-24T12:56:52.790Z,16.88
2022-10-24T12:57:52.716Z,16.88
2022-10-24T12:58:52.638Z,16.88
2022-10-24T12:59:52.551Z,16.88
2022-10-24T13:00:52.479Z,16.88
2022-10-24T13:01:52.482Z,22.50
2022-10-24T13:02:52.364Z,28.13
2022-10-24T13:03:52.247Z,28.13
2022-10-24T13:04:52.245Z,28.13
2022-10-24T13:05:52.093Z,22.50
2022-10-24T13:06:52.021Z,22.50
2022-10-24T13:07:52.198Z,22.50
2022-10-24T13:08:51.854Z,22.50
2022-10-24T13:09:51.778Z,22.50
2022-10-24T13:10:51.700Z,22.50
2022-10-24T13:11:54.273Z,22.50
2022-10-24T13:12:51.552Z,22.50